This is the latest recevied weather packets stored in our database for station/object HK2LS-SM. If no packets are shown the sender has not sent any weather packets the latest 10 day(s).
| Time | Temp. | Humidity | Pressure | Rain* | Wind** | Luminosity | Snow |
|---|---|---|---|---|---|---|---|
| 1778028503 | 30° C | 72% | 1007.1 hPa | 0 mm | - | - | - |
| 1778026364 | 30° C | 73% | 1007.1 hPa | 0 mm | - | - | - |
| 1778026062 | 30° C | 73% | 1007.1 hPa | 0 mm | - | - | - |
| 1778025158 | 30° C | 73% | 1007.1 hPa | 0 mm | - | - | - |
| 1778024857 | 30° C | 73% | 1007.1 hPa | 0 mm | - | - | - |
| 1778023651 | 30° C | 73% | 1007.1 hPa | 0 mm | - | - | - |
| 1778019040 | 33.33° C | 65% | 1007.1 hPa | 0 mm | - | - | - |
| 1778018437 | 33.89° C | 64% | 1007.1 hPa | 0 mm | - | - | - |
| 1778016900 | 33.89° C | 65% | 1007.1 hPa | 0 mm | - | - | - |
| 1778015664 | 34.44° C | 64% | 1007.1 hPa | 0 mm | - | - | - |
| 1778015363 | 34.44° C | 62% | 1007.1 hPa | 0 mm | - | - | - |
| 1778013493 | 33.89° C | 65% | 1007.1 hPa | 0 mm | - | - | - |
| 1778011321 | 35° C | 61% | 1007.1 hPa | 0 mm | - | - | - |
| 1778010718 | 33.89° C | 62% | 1007.1 hPa | 0 mm | - | - | - |
| 1778009814 | 33.33° C | 63% | 1007.1 hPa | 0 mm | - | - | - |
| 1778008816 | 33.89° C | 65% | 1007.1 hPa | 0 mm | - | - | - |
| 1778006375 | 34.44° C | 64% | 1007.1 hPa | 0 mm | - | - | - |
| 1778006073 | 34.44° C | 64% | 1007.1 hPa | 0 mm | - | - | - |
| 1778005170 | 34.44° C | 63% | 1007.1 hPa | 0 mm | - | - | - |
| 1778004235 | 34.44° C | 62% | 1007.1 hPa | 0 mm | - | - | - |
| 1778002062 | 33.89° C | 66% | 1007.1 hPa | 0 mm | - | - | - |
| 1777998686 | 31.11° C | 77% | 1007.1 hPa | 0 mm | - | - | - |
| 1777998352 | 30.56° C | 78% | 1007.1 hPa | 0 mm | - | - | - |
| 1777997449 | 30.56° C | 77% | 1007.1 hPa | 0 mm | - | - | - |
| 1777996545 | 31.11° C | 75% | 1007.1 hPa | 0 mm | - | - | - |
* Rain latest hour (hover to see other rain measurements)
** Current wind speed in m/s (hover to see current wind gust speed)